createdAt,value
2022-11-05T11:54:34.667Z,100224.48
2022-11-05T11:57:03.556Z,100223.29
2022-11-05T12:00:01.816Z,100220.75
2022-11-05T12:02:32.514Z,100218.23
2022-11-05T13:43:33.974Z,100319.58
2022-11-05T13:46:36.767Z,100324.27
2022-11-05T13:49:48.481Z,100315.71
2022-11-05T13:52:52.548Z,100311.14
2022-11-05T13:55:56.739Z,100313.98
2022-11-05T13:58:38.814Z,100325.10
2022-11-05T14:01:26.464Z,100327.45
2022-11-05T14:03:57.133Z,100328.95
2022-11-05T14:06:36.086Z,100327.79
2022-11-05T14:09:10.402Z,100331.33
2022-11-05T14:11:43.028Z,100334.42
2022-11-05T14:14:20.985Z,100334.33
2022-11-05T14:35:15.954Z,100349.63
2022-11-05T14:37:58.916Z,100358.50
2022-11-05T14:40:37.005Z,100361.09
2022-11-05T14:43:17.002Z,100360.80
2022-11-05T14:45:56.251Z,100366.09
2022-11-05T14:48:49.212Z,100367.20
2022-11-05T14:51:38.342Z,100365.12
2022-11-05T14:54:15.536Z,100371.14
2022-11-05T14:56:58.253Z,100372.86
2022-11-05T14:59:31.801Z,100374.86
2022-11-05T15:02:17.018Z,100380.75
2022-11-05T15:04:47.745Z,100380.86
2022-11-05T15:07:37.895Z,100378.41
2022-11-05T15:10:10.588Z,100385.14
2022-11-05T15:12:47.910Z,100388.70
2022-11-05T15:15:21.198Z,100392.15
2022-11-05T15:18:28.453Z,100394.59
2022-11-05T15:21:01.406Z,100396.38
2022-11-05T15:23:43.005Z,100399.02
2022-11-05T15:26:30.992Z,100404.46
2022-11-05T15:29:01.215Z,100405.94
2022-11-05T15:31:55.354Z,100410.31
2022-11-05T15:34:25.379Z,100412.80
2022-11-05T15:36:57.291Z,100411.55
2022-11-05T15:39:40.241Z,100408.91
2022-11-05T15:42:17.074Z,100411.14
2022-11-05T15:44:48.780Z,100410.08
2022-11-05T15:47:20.102Z,100417.98
2022-11-05T15:49:52.432Z,100425.84
2022-11-05T15:52:45.967Z,100433.39
2022-11-05T15:55:17.510Z,100433.92
2022-11-05T15:58:06.646Z,100433.86
2022-11-05T16:00:37.024Z,100440.39
2022-11-05T16:03:17.986Z,100442.04
2022-11-05T16:05:48.737Z,100443.81
2022-11-05T16:08:28.484Z,100442.48
2022-11-05T16:10:59.353Z,100444.66
2022-11-05T16:13:42.301Z,100450.05
2022-11-05T16:16:16.572Z,100453.05
2022-11-05T16:18:45.742Z,100452.61
2022-11-05T16:21:20.382Z,100454.27
2022-11-05T16:23:49.632Z,100458.55
2022-11-05T16:29:30.759Z,100459.21
2022-11-05T16:32:02.755Z,100457.77
2022-11-05T16:34:41.045Z,100456.62
2022-11-05T16:37:15.896Z,100459.33
2022-11-05T16:39:47.415Z,100462.14
2022-11-05T16:42:25.256Z,100467.01
2022-11-05T16:55:14.248Z,100487.30
2022-11-05T16:57:46.446Z,100494.95
2022-11-05T17:00:19.136Z,100499.98
2022-11-05T17:02:49.437Z,100492.00
2022-11-05T17:05:25.777Z,100495.57
2022-11-05T17:07:55.810Z,100493.48
2022-11-05T17:10:26.471Z,100496.63
2022-11-05T17:12:55.425Z,100493.61
2022-11-05T17:15:34.371Z,100494.98
2022-11-05T17:18:05.839Z,100498.75
2022-11-05T17:20:43.910Z,100494.58
2022-11-05T17:23:15.835Z,100500.95
2022-11-05T17:25:51.352Z,100504.48
2022-11-05T17:28:22.042Z,100508.50
2022-11-05T17:30:53.267Z,100514.02
2022-11-05T17:33:23.676Z,100513.72
2022-11-05T17:35:56.557Z,100515.85
2022-11-05T17:38:27.097Z,100521.61
2022-11-05T17:40:58.376Z,100529.55
2022-11-05T17:43:28.105Z,100539.30
2022-11-05T17:46:03.095Z,100543.20
2022-11-05T17:48:33.444Z,100546.60
2022-11-05T17:51:02.966Z,100549.38
2022-11-05T17:53:32.414Z,100550.65
2022-11-05T17:56:01.773Z,100553.38
2022-11-05T17:58:30.806Z,100556.79
2022-11-05T18:00:59.542Z,100556.98
2022-11-05T18:03:27.979Z,100558.33
2022-11-05T18:06:07.733Z,100560.15
2022-11-05T18:08:36.735Z,100558.73
2022-11-05T18:11:05.320Z,100562.67
2022-11-05T18:13:34.370Z,100564.46
2022-11-05T18:16:03.570Z,100567.75
2022-11-05T18:18:33.607Z,100566.19
2022-11-05T18:21:02.502Z,100570.02
2022-11-05T18:23:32.314Z,100569.12
2022-11-05T18:26:02.641Z,100571.67
2022-11-05T18:28:33.592Z,100573.57
2022-11-05T18:31:02.410Z,100574.58
2022-11-05T18:33:32.596Z,100580.52
2022-11-05T18:36:03.033Z,100585.31
2022-11-05T18:38:31.902Z,100587.68
2022-11-05T18:41:07.119Z,100587.04
2022-11-05T18:43:36.522Z,100582.45
2022-11-05T18:46:06.955Z,100580.13
2022-11-05T18:48:37.072Z,100579.61
2022-11-05T18:51:11.561Z,100579.08
2022-11-05T18:53:42.258Z,100584.54
2022-11-05T18:56:16.354Z,100585.87
2022-11-05T18:58:45.795Z,100584.23
2022-11-05T19:01:21.191Z,100588.95
2022-11-05T19:04:00.470Z,100585.80
2022-11-05T19:06:29.617Z,100581.80
2022-11-05T19:09:00.138Z,100586.50
2022-11-05T19:11:29.635Z,100587.86
2022-11-05T19:14:01.195Z,100587.54
2022-11-05T19:16:31.861Z,100591.39
2022-11-05T19:19:06.749Z,100594.73
2022-11-05T19:21:36.210Z,100593.23
2022-11-05T19:24:06.013Z,100591.96
2022-11-05T19:26:35.398Z,100589.46
2022-11-05T19:29:05.065Z,100597.58
2022-11-05T19:31:34.418Z,100595.88
2022-11-05T19:34:04.336Z,100602.86
2022-11-05T19:36:34.875Z,100604.91
2022-11-05T19:39:12.814Z,100606.29
2022-11-05T19:41:42.114Z,100610.61
2022-11-05T19:44:11.059Z,100610.65
2022-11-05T19:46:41.418Z,100616.73
2022-11-05T19:49:12.646Z,100617.02
2022-11-05T19:51:42.224Z,100616.77
2022-11-05T19:54:12.680Z,100622.15
2022-11-05T19:56:43.027Z,100621.34
2022-11-05T19:59:13.641Z,100622.93
2022-11-05T20:01:43.194Z,100624.84
2022-11-05T20:04:12.365Z,100630.02
2022-11-05T20:06:41.915Z,100630.92
2022-11-05T20:09:21.588Z,100630.25
2022-11-05T20:11:58.024Z,100632.86
2022-11-05T20:14:27.810Z,100637.02
2022-11-05T20:17:01.667Z,100635.84
2022-11-05T20:19:30.506Z,100639.30
2022-11-05T20:22:01.548Z,100639.16
2022-11-05T20:24:33.301Z,100637.13
2022-11-05T20:27:02.835Z,100644.71
2022-11-05T20:29:35.675Z,100640.27
2022-11-05T20:32:23.670Z,100640.62
2022-11-05T20:34:53.083Z,100648.34
2022-11-05T20:37:23.483Z,100658.10
2022-11-05T20:39:53.417Z,100661.20
2022-11-05T20:42:26.702Z,100661.75
2022-11-05T20:44:56.161Z,100659.06
2022-11-05T20:47:25.936Z,100656.70
2022-11-05T20:49:56.355Z,100657.75
2022-11-05T20:52:27.820Z,100656.73
2022-11-05T20:54:56.915Z,100653.35
2022-11-05T20:57:26.526Z,100658.34
2022-11-05T20:59:56.395Z,100659.57
2022-11-05T21:02:25.499Z,100659.23
2022-11-05T21:04:55.156Z,100665.58
2022-11-05T21:07:25.594Z,100664.73
2022-11-05T21:09:54.890Z,100667.48
2022-11-05T21:12:23.998Z,100664.74
2022-11-05T21:14:53.316Z,100665.63
2022-11-05T21:17:22.499Z,100667.34
2022-11-05T21:19:51.906Z,100665.98
2022-11-05T21:22:21.210Z,100667.02
2022-11-05T21:24:50.400Z,100667.52
2022-11-05T21:27:20.754Z,100670.95
2022-11-05T21:29:49.205Z,100677.11
2022-11-05T21:32:18.134Z,100676.44
2022-11-05T21:34:47.135Z,100681.74
2022-11-05T21:37:16.186Z,100681.73
2022-11-05T21:39:45.745Z,100684.30
2022-11-05T21:42:14.387Z,100681.58
2022-11-05T21:44:43.080Z,100688.08
2022-11-05T21:47:12.127Z,100686.54
2022-11-05T21:49:40.588Z,100685.85
2022-11-05T21:52:31.609Z,100681.23
2022-11-05T21:55:19.638Z,100682.60
2022-11-05T21:58:08.078Z,100683.79
2022-11-05T22:00:38.452Z,100687.05
2022-11-05T22:03:06.691Z,100684.14
2022-11-05T22:05:35.381Z,100689.09
2022-11-05T22:08:04.270Z,100690.46
2022-11-05T22:10:33.203Z,100685.67
2022-11-05T22:13:02.491Z,100684.81
2022-11-05T22:15:30.994Z,100680.36
2022-11-05T22:17:59.356Z,100680.02
2022-11-05T22:20:27.685Z,100682.05
2022-11-05T22:22:56.027Z,100680.52
2022-11-05T22:25:24.309Z,100679.49
2022-11-05T22:27:52.762Z,100686.31
2022-11-05T22:30:21.066Z,100690.08
2022-11-05T22:33:14.255Z,100693.14
2022-11-05T22:35:42.478Z,100696.23
2022-11-05T22:38:13.178Z,100697.92
2022-11-05T22:40:41.720Z,100698.92
2022-11-05T22:43:10.101Z,100697.89
2022-11-05T22:45:38.452Z,100696.50
2022-11-05T22:48:08.028Z,100691.04
2022-11-05T22:50:36.417Z,100693.26
2022-11-05T22:53:04.708Z,100694.79
2022-11-05T22:55:33.048Z,100693.23
2022-11-05T22:58:01.347Z,100691.69
2022-11-05T23:00:37.711Z,100691.35
2022-11-05T23:03:06.136Z,100694.08
2022-11-05T23:05:34.842Z,100691.69
2022-11-05T23:08:22.052Z,100688.42
2022-11-05T23:11:09.368Z,100683.27
2022-11-05T23:13:37.706Z,100683.77
2022-11-05T23:16:25.065Z,100686.66
2022-11-05T23:19:12.306Z,100689.92
2022-11-05T23:21:59.288Z,100689.23
2022-11-05T23:24:27.677Z,100684.95
2022-11-05T23:26:58.188Z,100684.09
2022-11-05T23:29:27.906Z,100686.31
2022-11-05T23:32:15.054Z,100690.91
2022-11-05T23:34:43.428Z,100695.69
2022-11-05T23:37:31.131Z,100692.77
2022-11-05T23:39:59.614Z,100694.63
2022-11-05T23:42:46.533Z,100693.24
2022-11-05T23:45:33.497Z,100694.95
2022-11-05T23:48:36.256Z,100695.30
2022-11-05T23:51:10.505Z,100700.23
2022-11-05T23:53:41.607Z,100700.59
2022-11-05T23:56:15.446Z,100704.36
2022-11-05T23:58:44.067Z,100706.94
